sensor_id;sensor_type;location;lat;lon;timestamp;P1;durP1;ratioP1;P2;durP2;ratioP2
6928;SDS011;3504;52.616;13.238;2023-12-07T00:01:59;50.73;;;26.67;;
6928;SDS011;3504;52.616;13.238;2023-12-07T00:06:59;47.23;;;25.43;;
6928;SDS011;3504;52.616;13.238;2023-12-07T00:12:00;50.43;;;26.83;;
6928;SDS011;3504;52.616;13.238;2023-12-07T00:17:00;46.63;;;25.57;;
6928;SDS011;3504;52.616;13.238;2023-12-07T00:22:01;47.23;;;25.30;;
6928;SDS011;3504;52.616;13.238;2023-12-07T00:27:01;43.90;;;25.17;;
6928;SDS011;3504;52.616;13.238;2023-12-07T00:32:02;40.07;;;23.10;;
6928;SDS011;3504;52.616;13.238;2023-12-07T00:37:03;43.43;;;24.90;;
6928;SDS011;3504;52.616;13.238;2023-12-07T00:42:03;44.17;;;24.43;;
6928;SDS011;3504;52.616;13.238;2023-12-07T00:47:04;45.60;;;25.87;;
6928;SDS011;3504;52.616;13.238;2023-12-07T00:52:05;44.97;;;25.40;;
6928;SDS011;3504;52.616;13.238;2023-12-07T00:57:06;41.07;;;23.37;;
6928;SDS011;3504;52.616;13.238;2023-12-07T01:02:06;36.97;;;22.20;;
6928;SDS011;3504;52.616;13.238;2023-12-07T01:07:07;37.37;;;22.97;;
6928;SDS011;3504;52.616;13.238;2023-12-07T01:12:07;42.33;;;23.77;;
6928;SDS011;3504;52.616;13.238;2023-12-07T01:17:08;46.27;;;24.20;;
6928;SDS011;3504;52.616;13.238;2023-12-07T01:22:08;40.30;;;23.53;;
6928;SDS011;3504;52.616;13.238;2023-12-07T01:27:09;40.77;;;22.87;;
6928;SDS011;3504;52.616;13.238;2023-12-07T01:32:10;45.13;;;24.03;;
6928;SDS011;3504;52.616;13.238;2023-12-07T01:37:10;43.07;;;23.90;;
6928;SDS011;3504;52.616;13.238;2023-12-07T01:42:11;40.20;;;23.73;;
6928;SDS011;3504;52.616;13.238;2023-12-07T01:47:12;41.57;;;24.20;;
6928;SDS011;3504;52.616;13.238;2023-12-07T01:52:13;45.83;;;24.13;;
6928;SDS011;3504;52.616;13.238;2023-12-07T01:57:14;44.33;;;25.77;;
6928;SDS011;3504;52.616;13.238;2023-12-07T02:02:15;47.60;;;25.40;;
6928;SDS011;3504;52.616;13.238;2023-12-07T02:07:15;50.03;;;26.10;;
6928;SDS011;3504;52.616;13.238;2023-12-07T02:12:17;50.57;;;26.27;;
6928;SDS011;3504;52.616;13.238;2023-12-07T02:22:42;50.50;;;26.53;;
6928;SDS011;3504;52.616;13.238;2023-12-07T02:27:48;53.00;;;26.57;;
6928;SDS011;3504;52.616;13.238;2023-12-07T02:32:48;57.47;;;29.10;;
6928;SDS011;3504;52.616;13.238;2023-12-07T02:37:49;61.00;;;27.63;;
6928;SDS011;3504;52.616;13.238;2023-12-07T02:42:51;54.93;;;27.20;;
6928;SDS011;3504;52.616;13.238;2023-12-07T02:47:53;57.43;;;28.20;;
6928;SDS011;3504;52.616;13.238;2023-12-07T02:52:54;53.93;;;27.37;;
6928;SDS011;3504;52.616;13.238;2023-12-07T02:57:56;58.17;;;28.07;;
6928;SDS011;3504;52.616;13.238;2023-12-07T03:02:56;57.30;;;27.17;;
6928;SDS011;3504;52.616;13.238;2023-12-07T03:07:56;55.87;;;27.53;;
6928;SDS011;3504;52.616;13.238;2023-12-07T03:12:57;54.10;;;28.67;;
6928;SDS011;3504;52.616;13.238;2023-12-07T03:17:58;57.10;;;28.50;;
6928;SDS011;3504;52.616;13.238;2023-12-07T03:22:58;49.77;;;26.47;;
6928;SDS011;3504;52.616;13.238;2023-12-07T03:27:59;55.73;;;27.10;;
6928;SDS011;3504;52.616;13.238;2023-12-07T03:32:59;52.17;;;26.80;;
6928;SDS011;3504;52.616;13.238;2023-12-07T03:38:00;51.47;;;26.17;;
6928;SDS011;3504;52.616;13.238;2023-12-07T03:43:00;52.73;;;26.47;;
6928;SDS011;3504;52.616;13.238;2023-12-07T03:48:06;51.30;;;27.23;;
6928;SDS011;3504;52.616;13.238;2023-12-07T03:53:06;51.90;;;27.07;;
6928;SDS011;3504;52.616;13.238;2023-12-07T03:58:07;47.10;;;24.67;;
6928;SDS011;3504;52.616;13.238;2023-12-07T04:03:07;51.27;;;25.90;;
6928;SDS011;3504;52.616;13.238;2023-12-07T04:08:08;48.77;;;26.23;;
6928;SDS011;3504;52.616;13.238;2023-12-07T04:13:08;51.27;;;25.03;;
6928;SDS011;3504;52.616;13.238;2023-12-07T04:18:09;52.70;;;25.23;;
6928;SDS011;3504;52.616;13.238;2023-12-07T04:23:09;52.90;;;25.93;;
6928;SDS011;3504;52.616;13.238;2023-12-07T04:28:10;53.70;;;26.13;;
6928;SDS011;3504;52.616;13.238;2023-12-07T04:33:11;54.63;;;25.27;;
6928;SDS011;3504;52.616;13.238;2023-12-07T04:38:11;53.23;;;25.83;;
6928;SDS011;3504;52.616;13.238;2023-12-07T04:43:12;56.17;;;26.93;;
6928;SDS011;3504;52.616;13.238;2023-12-07T04:48:12;56.30;;;26.23;;
6928;SDS011;3504;52.616;13.238;2023-12-07T04:53:13;55.70;;;28.10;;
6928;SDS011;3504;52.616;13.238;2023-12-07T04:58:13;68.37;;;29.83;;
6928;SDS011;3504;52.616;13.238;2023-12-07T05:03:14;56.57;;;26.37;;
6928;SDS011;3504;52.616;13.238;2023-12-07T05:08:14;52.57;;;25.93;;
6928;SDS011;3504;52.616;13.238;2023-12-07T05:13:15;55.10;;;27.70;;
6928;SDS011;3504;52.616;13.238;2023-12-07T05:18:15;50.70;;;25.23;;
6928;SDS011;3504;52.616;13.238;2023-12-07T05:23:19;49.93;;;26.27;;
6928;SDS011;3504;52.616;13.238;2023-12-07T05:28:19;54.23;;;28.27;;
6928;SDS011;3504;52.616;13.238;2023-12-07T05:33:20;58.10;;;28.73;;
6928;SDS011;3504;52.616;13.238;2023-12-07T05:38:20;54.27;;;26.63;;
6928;SDS011;3504;52.616;13.238;2023-12-07T05:43:21;49.23;;;27.27;;
6928;SDS011;3504;52.616;13.238;2023-12-07T05:48:21;43.13;;;22.57;;
6928;SDS011;3504;52.616;13.238;2023-12-07T05:53:21;47.43;;;25.20;;
6928;SDS011;3504;52.616;13.238;2023-12-07T05:58:22;44.30;;;24.27;;
6928;SDS011;3504;52.616;13.238;2023-12-07T06:03:22;55.03;;;25.77;;
6928;SDS011;3504;52.616;13.238;2023-12-07T06:08:24;57.17;;;28.03;;
6928;SDS011;3504;52.616;13.238;2023-12-07T06:13:24;57.87;;;27.77;;
6928;SDS011;3504;52.616;13.238;2023-12-07T06:18:25;57.07;;;27.83;;
6928;SDS011;3504;52.616;13.238;2023-12-07T06:23:25;58.13;;;29.50;;
6928;SDS011;3504;52.616;13.238;2023-12-07T06:28:26;65.57;;;28.73;;
6928;SDS011;3504;52.616;13.238;2023-12-07T06:33:26;56.17;;;26.97;;
6928;SDS011;3504;52.616;13.238;2023-12-07T06:38:27;65.00;;;29.67;;
6928;SDS011;3504;52.616;13.238;2023-12-07T06:43:27;61.73;;;29.73;;
6928;SDS011;3504;52.616;13.238;2023-12-07T06:48:28;66.70;;;29.97;;
6928;SDS011;3504;52.616;13.238;2023-12-07T06:53:29;55.43;;;28.13;;
6928;SDS011;3504;52.616;13.238;2023-12-07T06:58:31;62.57;;;28.60;;
6928;SDS011;3504;52.616;13.238;2023-12-07T07:03:32;68.53;;;28.70;;
6928;SDS011;3504;52.616;13.238;2023-12-07T07:08:32;59.47;;;26.97;;
6928;SDS011;3504;52.616;13.238;2023-12-07T07:13:32;64.00;;;28.00;;
6928;SDS011;3504;52.616;13.238;2023-12-07T07:18:33;66.50;;;28.20;;
6928;SDS011;3504;52.616;13.238;2023-12-07T07:23:34;58.43;;;25.87;;
6928;SDS011;3504;52.616;13.238;2023-12-07T07:28:35;58.70;;;26.87;;
6928;SDS011;3504;52.616;13.238;2023-12-07T07:33:36;61.27;;;27.57;;
6928;SDS011;3504;52.616;13.238;2023-12-07T07:38:36;62.47;;;26.20;;
6928;SDS011;3504;52.616;13.238;2023-12-07T07:43:38;60.27;;;27.63;;
6928;SDS011;3504;52.616;13.238;2023-12-07T07:48:38;55.97;;;26.93;;
6928;SDS011;3504;52.616;13.238;2023-12-07T07:53:39;58.43;;;27.33;;
6928;SDS011;3504;52.616;13.238;2023-12-07T07:58:40;71.10;;;30.27;;
6928;SDS011;3504;52.616;13.238;2023-12-07T08:03:40;58.30;;;27.13;;
6928;SDS011;3504;52.616;13.238;2023-12-07T08:08:40;62.13;;;27.63;;
6928;SDS011;3504;52.616;13.238;2023-12-07T08:13:41;55.43;;;26.53;;
6928;SDS011;3504;52.616;13.238;2023-12-07T08:18:41;51.50;;;25.47;;
6928;SDS011;3504;52.616;13.238;2023-12-07T08:23:45;57.40;;;27.50;;
6928;SDS011;3504;52.616;13.238;2023-12-07T08:28:45;55.37;;;27.20;;
6928;SDS011;3504;52.616;13.238;2023-12-07T08:33:46;51.43;;;25.57;;
6928;SDS011;3504;52.616;13.238;2023-12-07T08:38:48;54.40;;;25.97;;
6928;SDS011;3504;52.616;13.238;2023-12-07T08:43:48;49.90;;;25.93;;
6928;SDS011;3504;52.616;13.238;2023-12-07T08:48:49;55.13;;;26.63;;
6928;SDS011;3504;52.616;13.238;2023-12-07T08:53:49;51.97;;;25.53;;
6928;SDS011;3504;52.616;13.238;2023-12-07T08:58:51;49.07;;;25.30;;
6928;SDS011;3504;52.616;13.238;2023-12-07T09:03:52;50.50;;;26.03;;
6928;SDS011;3504;52.616;13.238;2023-12-07T09:08:52;57.80;;;27.50;;
6928;SDS011;3504;52.616;13.238;2023-12-07T09:13:53;50.10;;;25.10;;
6928;SDS011;3504;52.616;13.238;2023-12-07T09:18:53;52.60;;;26.03;;
6928;SDS011;3504;52.616;13.238;2023-12-07T09:23:54;52.37;;;25.53;;
6928;SDS011;3504;52.616;13.238;2023-12-07T09:28:54;52.27;;;26.07;;
6928;SDS011;3504;52.616;13.238;2023-12-07T09:33:55;51.17;;;25.93;;
6928;SDS011;3504;52.616;13.238;2023-12-07T09:38:56;49.10;;;25.23;;
6928;SDS011;3504;52.616;13.238;2023-12-07T09:43:56;56.23;;;26.40;;
6928;SDS011;3504;52.616;13.238;2023-12-07T09:48:57;52.20;;;26.37;;
6928;SDS011;3504;52.616;13.238;2023-12-07T09:53:58;52.93;;;25.93;;
6928;SDS011;3504;52.616;13.238;2023-12-07T09:58:59;49.83;;;26.47;;
6928;SDS011;3504;52.616;13.238;2023-12-07T10:04:15;55.87;;;26.90;;
6928;SDS011;3504;52.616;13.238;2023-12-07T10:09:25;52.87;;;26.40;;
6928;SDS011;3504;52.616;13.238;2023-12-07T10:14:26;56.00;;;28.73;;
6928;SDS011;3504;52.616;13.238;2023-12-07T10:19:27;52.60;;;25.97;;
6928;SDS011;3504;52.616;13.238;2023-12-07T10:24:28;55.33;;;27.87;;
6928;SDS011;3504;52.616;13.238;2023-12-07T10:29:30;52.27;;;26.17;;
6928;SDS011;3504;52.616;13.238;2023-12-07T10:34:34;53.53;;;25.80;;
6928;SDS011;3504;52.616;13.238;2023-12-07T10:39:37;54.03;;;26.77;;
6928;SDS011;3504;52.616;13.238;2023-12-07T10:44:40;46.77;;;25.27;;
6928;SDS011;3504;52.616;13.238;2023-12-07T10:49:45;55.27;;;27.70;;
6928;SDS011;3504;52.616;13.238;2023-12-07T11:00:03;48.50;;;24.87;;
6928;SDS011;3504;52.616;13.238;2023-12-07T11:05:04;46.07;;;24.33;;
6928;SDS011;3504;52.616;13.238;2023-12-07T11:10:12;50.37;;;25.80;;
6928;SDS011;3504;52.616;13.238;2023-12-07T11:15:31;49.03;;;25.50;;
6928;SDS011;3504;52.616;13.238;2023-12-07T11:20:39;51.70;;;23.67;;
6928;SDS011;3504;52.616;13.238;2023-12-07T11:25:42;55.23;;;25.53;;
6928;SDS011;3504;52.616;13.238;2023-12-07T11:30:45;57.83;;;24.83;;
6928;SDS011;3504;52.616;13.238;2023-12-07T11:41:01;49.43;;;26.30;;
6928;SDS011;3504;52.616;13.238;2023-12-07T11:46:06;46.00;;;24.27;;
6928;SDS011;3504;52.616;13.238;2023-12-07T11:51:07;54.10;;;26.60;;
6928;SDS011;3504;52.616;13.238;2023-12-07T11:56:11;50.37;;;24.57;;
6928;SDS011;3504;52.616;13.238;2023-12-07T12:01:13;48.50;;;24.23;;
6928;SDS011;3504;52.616;13.238;2023-12-07T12:06:15;55.60;;;25.37;;
6928;SDS011;3504;52.616;13.238;2023-12-07T12:11:15;53.27;;;27.17;;
6928;SDS011;3504;52.616;13.238;2023-12-07T12:16:16;55.57;;;26.53;;
6928;SDS011;3504;52.616;13.238;2023-12-07T12:21:16;58.07;;;28.87;;
6928;SDS011;3504;52.616;13.238;2023-12-07T12:26:17;52.17;;;26.77;;
6928;SDS011;3504;52.616;13.238;2023-12-07T12:31:18;57.43;;;28.27;;
6928;SDS011;3504;52.616;13.238;2023-12-07T12:36:19;60.43;;;27.90;;
6928;SDS011;3504;52.616;13.238;2023-12-07T12:41:23;59.63;;;29.23;;
6928;SDS011;3504;52.616;13.238;2023-12-07T12:46:23;61.80;;;29.90;;
6928;SDS011;3504;52.616;13.238;2023-12-07T12:51:24;64.40;;;30.57;;
6928;SDS011;3504;52.616;13.238;2023-12-07T12:56:27;60.13;;;29.83;;
6928;SDS011;3504;52.616;13.238;2023-12-07T13:01:28;68.90;;;31.63;;
6928;SDS011;3504;52.616;13.238;2023-12-07T13:06:29;61.00;;;28.83;;
6928;SDS011;3504;52.616;13.238;2023-12-07T13:11:29;60.33;;;29.73;;
6928;SDS011;3504;52.616;13.238;2023-12-07T13:16:30;70.60;;;31.93;;
6928;SDS011;3504;52.616;13.238;2023-12-07T13:21:30;68.70;;;34.67;;
6928;SDS011;3504;52.616;13.238;2023-12-07T13:26:31;77.63;;;36.87;;
6928;SDS011;3504;52.616;13.238;2023-12-07T13:31:31;80.47;;;37.30;;
6928;SDS011;3504;52.616;13.238;2023-12-07T13:36:32;77.87;;;36.17;;
6928;SDS011;3504;52.616;13.238;2023-12-07T13:41:33;76.33;;;34.47;;
6928;SDS011;3504;52.616;13.238;2023-12-07T13:46:34;83.90;;;37.87;;
6928;SDS011;3504;52.616;13.238;2023-12-07T13:51:34;84.60;;;38.43;;
6928;SDS011;3504;52.616;13.238;2023-12-07T13:56:35;77.57;;;36.30;;
6928;SDS011;3504;52.616;13.238;2023-12-07T14:01:36;80.63;;;37.63;;
6928;SDS011;3504;52.616;13.238;2023-12-07T14:06:36;91.10;;;38.47;;
6928;SDS011;3504;52.616;13.238;2023-12-07T14:11:37;95.70;;;38.77;;
6928;SDS011;3504;52.616;13.238;2023-12-07T14:16:39;92.10;;;39.63;;
6928;SDS011;3504;52.616;13.238;2023-12-07T14:21:40;97.57;;;41.40;;
6928;SDS011;3504;52.616;13.238;2023-12-07T14:26:43;111.20;;;42.83;;
6928;SDS011;3504;52.616;13.238;2023-12-07T14:31:45;100.87;;;40.70;;
6928;SDS011;3504;52.616;13.238;2023-12-07T14:36:45;114.20;;;42.27;;
6928;SDS011;3504;52.616;13.238;2023-12-07T14:41:46;105.93;;;42.07;;
6928;SDS011;3504;52.616;13.238;2023-12-07T14:46:48;116.83;;;43.27;;
6928;SDS011;3504;52.616;13.238;2023-12-07T14:51:49;111.90;;;42.23;;
6928;SDS011;3504;52.616;13.238;2023-12-07T14:56:50;118.17;;;40.00;;
6928;SDS011;3504;52.616;13.238;2023-12-07T15:01:51;124.67;;;41.73;;
6928;SDS011;3504;52.616;13.238;2023-12-07T15:06:52;118.07;;;40.80;;
6928;SDS011;3504;52.616;13.238;2023-12-07T15:11:53;132.33;;;41.17;;
6928;SDS011;3504;52.616;13.238;2023-12-07T15:16:54;135.23;;;42.93;;
6928;SDS011;3504;52.616;13.238;2023-12-07T15:21:55;129.17;;;43.70;;
6928;SDS011;3504;52.616;13.238;2023-12-07T15:26:55;128.57;;;39.83;;
6928;SDS011;3504;52.616;13.238;2023-12-07T15:31:56;159.87;;;42.93;;
6928;SDS011;3504;52.616;13.238;2023-12-07T15:36:56;117.10;;;38.13;;
6928;SDS011;3504;52.616;13.238;2023-12-07T15:41:57;119.77;;;41.37;;
6928;SDS011;3504;52.616;13.238;2023-12-07T15:46:57;109.17;;;39.27;;
6928;SDS011;3504;52.616;13.238;2023-12-07T15:51:58;107.90;;;36.87;;
6928;SDS011;3504;52.616;13.238;2023-12-07T15:56:58;112.40;;;36.40;;
6928;SDS011;3504;52.616;13.238;2023-12-07T16:01:58;107.03;;;35.80;;
6928;SDS011;3504;52.616;13.238;2023-12-07T16:06:59;99.20;;;38.97;;
6928;SDS011;3504;52.616;13.238;2023-12-07T16:12:02;103.20;;;36.33;;
6928;SDS011;3504;52.616;13.238;2023-12-07T16:17:05;101.83;;;36.43;;
6928;SDS011;3504;52.616;13.238;2023-12-07T16:22:06;83.93;;;31.93;;
6928;SDS011;3504;52.616;13.238;2023-12-07T16:27:07;88.33;;;30.80;;
6928;SDS011;3504;52.616;13.238;2023-12-07T16:32:08;86.97;;;31.10;;
6928;SDS011;3504;52.616;13.238;2023-12-07T16:37:08;93.10;;;32.47;;
6928;SDS011;3504;52.616;13.238;2023-12-07T16:42:12;86.40;;;30.97;;
6928;SDS011;3504;52.616;13.238;2023-12-07T16:47:12;86.63;;;32.67;;
6928;SDS011;3504;52.616;13.238;2023-12-07T16:52:13;76.37;;;30.00;;
6928;SDS011;3504;52.616;13.238;2023-12-07T16:57:14;85.70;;;30.63;;
6928;SDS011;3504;52.616;13.238;2023-12-07T17:02:14;81.43;;;30.23;;
6928;SDS011;3504;52.616;13.238;2023-12-07T17:07:15;78.07;;;29.03;;
6928;SDS011;3504;52.616;13.238;2023-12-07T17:12:15;81.20;;;30.10;;
6928;SDS011;3504;52.616;13.238;2023-12-07T17:17:16;93.07;;;35.10;;
6928;SDS011;3504;52.616;13.238;2023-12-07T17:22:16;103.63;;;35.33;;
6928;SDS011;3504;52.616;13.238;2023-12-07T17:27:16;85.63;;;31.70;;
6928;SDS011;3504;52.616;13.238;2023-12-07T17:32:17;88.80;;;32.67;;
6928;SDS011;3504;52.616;13.238;2023-12-07T17:37:18;92.40;;;31.83;;
6928;SDS011;3504;52.616;13.238;2023-12-07T17:42:19;106.37;;;33.00;;
6928;SDS011;3504;52.616;13.238;2023-12-07T17:47:19;86.70;;;31.60;;
6928;SDS011;3504;52.616;13.238;2023-12-07T17:52:22;90.17;;;33.27;;
6928;SDS011;3504;52.616;13.238;2023-12-07T17:57:23;95.97;;;34.33;;
6928;SDS011;3504;52.616;13.238;2023-12-07T18:02:24;94.97;;;33.70;;
6928;SDS011;3504;52.616;13.238;2023-12-07T18:07:24;78.33;;;30.87;;
6928;SDS011;3504;52.616;13.238;2023-12-07T18:12:25;83.47;;;34.37;;
6928;SDS011;3504;52.616;13.238;2023-12-07T18:17:25;85.83;;;33.77;;
6928;SDS011;3504;52.616;13.238;2023-12-07T18:22:26;81.50;;;33.13;;
6928;SDS011;3504;52.616;13.238;2023-12-07T18:27:26;92.87;;;34.47;;
6928;SDS011;3504;52.616;13.238;2023-12-07T18:32:27;85.50;;;33.70;;
6928;SDS011;3504;52.616;13.238;2023-12-07T18:37:27;97.87;;;35.73;;
6928;SDS011;3504;52.616;13.238;2023-12-07T18:42:28;94.87;;;35.03;;
6928;SDS011;3504;52.616;13.238;2023-12-07T18:47:28;111.97;;;43.03;;
6928;SDS011;3504;52.616;13.238;2023-12-07T18:52:29;106.23;;;39.10;;
6928;SDS011;3504;52.616;13.238;2023-12-07T18:57:29;105.00;;;37.03;;
6928;SDS011;3504;52.616;13.238;2023-12-07T19:02:30;102.97;;;38.47;;
6928;SDS011;3504;52.616;13.238;2023-12-07T19:07:30;104.23;;;35.30;;
6928;SDS011;3504;52.616;13.238;2023-12-07T19:12:31;112.97;;;36.07;;
6928;SDS011;3504;52.616;13.238;2023-12-07T19:17:31;99.83;;;34.63;;
6928;SDS011;3504;52.616;13.238;2023-12-07T19:22:32;111.63;;;36.47;;
6928;SDS011;3504;52.616;13.238;2023-12-07T19:27:32;92.03;;;33.43;;
6928;SDS011;3504;52.616;13.238;2023-12-07T19:32:33;106.47;;;36.30;;
6928;SDS011;3504;52.616;13.238;2023-12-07T19:37:34;99.70;;;38.53;;
6928;SDS011;3504;52.616;13.238;2023-12-07T19:42:36;103.67;;;37.17;;
6928;SDS011;3504;52.616;13.238;2023-12-07T19:47:36;93.83;;;36.57;;
6928;SDS011;3504;52.616;13.238;2023-12-07T19:52:37;88.47;;;34.23;;
6928;SDS011;3504;52.616;13.238;2023-12-07T19:57:37;103.07;;;39.67;;
6928;SDS011;3504;52.616;13.238;2023-12-07T20:02:42;84.50;;;34.17;;
6928;SDS011;3504;52.616;13.238;2023-12-07T20:07:42;76.50;;;30.07;;
6928;SDS011;3504;52.616;13.238;2023-12-07T20:12:43;83.87;;;30.30;;
6928;SDS011;3504;52.616;13.238;2023-12-07T20:17:43;72.53;;;29.43;;
6928;SDS011;3504;52.616;13.238;2023-12-07T20:22:44;84.07;;;35.27;;
6928;SDS011;3504;52.616;13.238;2023-12-07T20:27:44;83.67;;;31.50;;
6928;SDS011;3504;52.616;13.238;2023-12-07T20:32:45;73.80;;;28.97;;
6928;SDS011;3504;52.616;13.238;2023-12-07T20:37:46;70.80;;;29.07;;
6928;SDS011;3504;52.616;13.238;2023-12-07T20:42:47;71.93;;;29.97;;
6928;SDS011;3504;52.616;13.238;2023-12-07T20:47:47;72.80;;;31.10;;
6928;SDS011;3504;52.616;13.238;2023-12-07T20:52:48;77.53;;;31.50;;
6928;SDS011;3504;52.616;13.238;2023-12-07T20:57:49;62.43;;;27.60;;
6928;SDS011;3504;52.616;13.238;2023-12-07T21:02:51;83.60;;;35.73;;
6928;SDS011;3504;52.616;13.238;2023-12-07T21:07:51;70.87;;;32.27;;
6928;SDS011;3504;52.616;13.238;2023-12-07T21:12:52;66.53;;;31.63;;
6928;SDS011;3504;52.616;13.238;2023-12-07T21:17:56;68.67;;;31.47;;
6928;SDS011;3504;52.616;13.238;2023-12-07T21:22:57;60.50;;;28.03;;
6928;SDS011;3504;52.616;13.238;2023-12-07T21:27:57;70.97;;;29.73;;
6928;SDS011;3504;52.616;13.238;2023-12-07T21:32:58;70.97;;;30.43;;
6928;SDS011;3504;52.616;13.238;2023-12-07T21:37:58;66.63;;;29.20;;
6928;SDS011;3504;52.616;13.238;2023-12-07T21:42:59;78.63;;;33.53;;
6928;SDS011;3504;52.616;13.238;2023-12-07T21:48:00;89.37;;;36.90;;
6928;SDS011;3504;52.616;13.238;2023-12-07T21:53:00;84.43;;;35.57;;
6928;SDS011;3504;52.616;13.238;2023-12-07T21:58:01;82.50;;;33.80;;
6928;SDS011;3504;52.616;13.238;2023-12-07T22:03:01;72.27;;;30.83;;
6928;SDS011;3504;52.616;13.238;2023-12-07T22:08:03;68.10;;;32.47;;
6928;SDS011;3504;52.616;13.238;2023-12-07T22:13:04;86.03;;;35.77;;
6928;SDS011;3504;52.616;13.238;2023-12-07T22:18:04;105.77;;;40.57;;
6928;SDS011;3504;52.616;13.238;2023-12-07T22:23:05;90.90;;;37.80;;
6928;SDS011;3504;52.616;13.238;2023-12-07T22:28:06;98.67;;;38.80;;
6928;SDS011;3504;52.616;13.238;2023-12-07T22:33:07;86.13;;;36.43;;
6928;SDS011;3504;52.616;13.238;2023-12-07T22:38:07;89.33;;;34.73;;
6928;SDS011;3504;52.616;13.238;2023-12-07T22:43:08;95.93;;;37.33;;
6928;SDS011;3504;52.616;13.238;2023-12-07T22:48:09;90.93;;;37.43;;
6928;SDS011;3504;52.616;13.238;2023-12-07T22:53:09;102.17;;;38.60;;
6928;SDS011;3504;52.616;13.238;2023-12-07T22:58:10;105.23;;;37.57;;
6928;SDS011;3504;52.616;13.238;2023-12-07T23:03:10;100.07;;;39.10;;
6928;SDS011;3504;52.616;13.238;2023-12-07T23:08:11;107.63;;;37.63;;
6928;SDS011;3504;52.616;13.238;2023-12-07T23:13:11;110.20;;;39.27;;
6928;SDS011;3504;52.616;13.238;2023-12-07T23:18:12;107.30;;;39.23;;
6928;SDS011;3504;52.616;13.238;2023-12-07T23:23:12;118.07;;;39.60;;
6928;SDS011;3504;52.616;13.238;2023-12-07T23:28:13;123.37;;;41.80;;
6928;SDS011;3504;52.616;13.238;2023-12-07T23:33:13;112.37;;;39.57;;
6928;SDS011;3504;52.616;13.238;2023-12-07T23:38:14;119.93;;;40.13;;
6928;SDS011;3504;52.616;13.238;2023-12-07T23:43:14;101.40;;;37.50;;
6928;SDS011;3504;52.616;13.238;2023-12-07T23:48:15;98.80;;;35.60;;
6928;SDS011;3504;52.616;13.238;2023-12-07T23:53:16;96.07;;;35.83;;
6928;SDS011;3504;52.616;13.238;2023-12-07T23:58:16;100.13;;;37.40;;
